sensor_id;sensor_type;location;lat;lon;timestamp;P1;durP1;ratioP1;P2;durP2;ratioP2
703;SDS011;335;48.694;9.120;2023-05-07T00:00:53;3.37;;;3.17;;
703;SDS011;335;48.694;9.120;2023-05-07T00:03:20;4.07;;;3.40;;
703;SDS011;335;48.694;9.120;2023-05-07T00:05:46;3.50;;;3.20;;
703;SDS011;335;48.694;9.120;2023-05-07T00:08:11;3.33;;;2.80;;
703;SDS011;335;48.694;9.120;2023-05-07T00:10:37;2.30;;;2.20;;
703;SDS011;335;48.694;9.120;2023-05-07T00:13:02;3.00;;;2.80;;
703;SDS011;335;48.694;9.120;2023-05-07T00:15:27;2.87;;;2.67;;
703;SDS011;335;48.694;9.120;2023-05-07T00:17:53;3.10;;;2.90;;
703;SDS011;335;48.694;9.120;2023-05-07T00:20:18;3.50;;;3.20;;
703;SDS011;335;48.694;9.120;2023-05-07T00:22:44;3.60;;;3.40;;
703;SDS011;335;48.694;9.120;2023-05-07T00:25:09;4.13;;;3.73;;
703;SDS011;335;48.694;9.120;2023-05-07T00:27:35;3.47;;;3.27;;
703;SDS011;335;48.694;9.120;2023-05-07T00:30:00;3.90;;;3.70;;
703;SDS011;335;48.694;9.120;2023-05-07T00:32:25;4.03;;;3.73;;
703;SDS011;335;48.694;9.120;2023-05-07T00:34:51;3.80;;;3.60;;
703;SDS011;335;48.694;9.120;2023-05-07T00:37:16;3.93;;;3.70;;
703;SDS011;335;48.694;9.120;2023-05-07T00:39:41;3.90;;;3.60;;
703;SDS011;335;48.694;9.120;2023-05-07T00:42:07;9.47;;;3.50;;
703;SDS011;335;48.694;9.120;2023-05-07T00:44:33;4.53;;;4.23;;
703;SDS011;335;48.694;9.120;2023-05-07T00:46:58;4.50;;;4.27;;
703;SDS011;335;48.694;9.120;2023-05-07T00:49:31;6.00;;;5.50;;
703;SDS011;335;48.694;9.120;2023-05-07T00:52:07;3.63;;;3.43;;
703;SDS011;335;48.694;9.120;2023-05-07T00:54:35;3.70;;;3.40;;
703;SDS011;335;48.694;9.120;2023-05-07T00:57:01;4.40;;;4.00;;
703;SDS011;335;48.694;9.120;2023-05-07T00:59:27;4.20;;;4.00;;
703;SDS011;335;48.694;9.120;2023-05-07T01:01:53;5.40;;;4.87;;
703;SDS011;335;48.694;9.120;2023-05-07T01:04:18;4.60;;;4.30;;
703;SDS011;335;48.694;9.120;2023-05-07T01:06:44;4.70;;;4.40;;
703;SDS011;335;48.694;9.120;2023-05-07T01:09:10;4.60;;;4.30;;
703;SDS011;335;48.694;9.120;2023-05-07T01:11:35;8.90;;;5.00;;
703;SDS011;335;48.694;9.120;2023-05-07T01:14:00;4.10;;;3.80;;
703;SDS011;335;48.694;9.120;2023-05-07T01:16:26;4.67;;;4.30;;
703;SDS011;335;48.694;9.120;2023-05-07T01:18:52;4.67;;;4.37;;
703;SDS011;335;48.694;9.120;2023-05-07T01:21:17;4.40;;;4.10;;
703;SDS011;335;48.694;9.120;2023-05-07T01:23:44;4.87;;;4.47;;
703;SDS011;335;48.694;9.120;2023-05-07T01:26:10;3.90;;;3.60;;
703;SDS011;335;48.694;9.120;2023-05-07T01:28:35;3.77;;;3.23;;
703;SDS011;335;48.694;9.120;2023-05-07T01:31:01;4.23;;;3.80;;
703;SDS011;335;48.694;9.120;2023-05-07T01:33:29;4.40;;;4.10;;
703;SDS011;335;48.694;9.120;2023-05-07T01:35:56;4.33;;;4.03;;
703;SDS011;335;48.694;9.120;2023-05-07T01:38:23;4.20;;;4.00;;
703;SDS011;335;48.694;9.120;2023-05-07T01:40:48;3.83;;;3.60;;
703;SDS011;335;48.694;9.120;2023-05-07T01:43:14;3.80;;;3.60;;
703;SDS011;335;48.694;9.120;2023-05-07T01:45:40;3.87;;;3.57;;
703;SDS011;335;48.694;9.120;2023-05-07T01:48:05;4.03;;;3.83;;
703;SDS011;335;48.694;9.120;2023-05-07T01:50:31;3.27;;;3.07;;
703;SDS011;335;48.694;9.120;2023-05-07T01:52:57;4.40;;;4.03;;
703;SDS011;335;48.694;9.120;2023-05-07T01:55:22;3.97;;;3.77;;
703;SDS011;335;48.694;9.120;2023-05-07T01:57:48;3.70;;;3.50;;
703;SDS011;335;48.694;9.120;2023-05-07T02:00:14;4.10;;;3.80;;
703;SDS011;335;48.694;9.120;2023-05-07T02:02:39;3.47;;;3.17;;
703;SDS011;335;48.694;9.120;2023-05-07T02:05:04;3.70;;;3.50;;
703;SDS011;335;48.694;9.120;2023-05-07T02:07:30;3.30;;;3.00;;
703;SDS011;335;48.694;9.120;2023-05-07T02:09:55;3.83;;;3.43;;
703;SDS011;335;48.694;9.120;2023-05-07T02:12:21;3.70;;;3.40;;
703;SDS011;335;48.694;9.120;2023-05-07T02:14:47;3.87;;;3.53;;
703;SDS011;335;48.694;9.120;2023-05-07T02:17:12;3.27;;;3.17;;
703;SDS011;335;48.694;9.120;2023-05-07T02:19:38;4.10;;;3.90;;
703;SDS011;335;48.694;9.120;2023-05-07T02:22:03;3.80;;;3.60;;
703;SDS011;335;48.694;9.120;2023-05-07T02:24:28;5.30;;;4.17;;
703;SDS011;335;48.694;9.120;2023-05-07T02:26:54;4.13;;;3.60;;
703;SDS011;335;48.694;9.120;2023-05-07T02:29:20;4.00;;;3.80;;
703;SDS011;335;48.694;9.120;2023-05-07T02:31:45;3.80;;;3.60;;
703;SDS011;335;48.694;9.120;2023-05-07T02:34:10;3.50;;;3.30;;
703;SDS011;335;48.694;9.120;2023-05-07T02:36:36;3.70;;;3.40;;
703;SDS011;335;48.694;9.120;2023-05-07T02:39:01;3.53;;;3.33;;
703;SDS011;335;48.694;9.120;2023-05-07T02:41:27;3.53;;;3.33;;
703;SDS011;335;48.694;9.120;2023-05-07T02:43:53;4.43;;;4.10;;
703;SDS011;335;48.694;9.120;2023-05-07T02:46:18;3.83;;;3.53;;
703;SDS011;335;48.694;9.120;2023-05-07T02:48:43;4.17;;;3.83;;
703;SDS011;335;48.694;9.120;2023-05-07T02:51:09;3.77;;;3.57;;
703;SDS011;335;48.694;9.120;2023-05-07T02:53:34;3.83;;;3.63;;
703;SDS011;335;48.694;9.120;2023-05-07T02:56:00;4.40;;;4.00;;
703;SDS011;335;48.694;9.120;2023-05-07T02:58:26;4.00;;;3.63;;
703;SDS011;335;48.694;9.120;2023-05-07T03:00:51;3.23;;;3.03;;
703;SDS011;335;48.694;9.120;2023-05-07T03:03:17;3.20;;;2.97;;
703;SDS011;335;48.694;9.120;2023-05-07T03:05:43;3.97;;;3.67;;
703;SDS011;335;48.694;9.120;2023-05-07T03:08:08;3.47;;;3.27;;
703;SDS011;335;48.694;9.120;2023-05-07T03:10:34;3.13;;;2.93;;
703;SDS011;335;48.694;9.120;2023-05-07T03:13:00;4.00;;;3.70;;
703;SDS011;335;48.694;9.120;2023-05-07T03:15:25;2.80;;;2.70;;
703;SDS011;335;48.694;9.120;2023-05-07T03:17:51;3.60;;;3.40;;
703;SDS011;335;48.694;9.120;2023-05-07T03:20:16;4.27;;;3.87;;
703;SDS011;335;48.694;9.120;2023-05-07T03:22:42;3.53;;;3.23;;
703;SDS011;335;48.694;9.120;2023-05-07T03:25:08;3.17;;;2.97;;
703;SDS011;335;48.694;9.120;2023-05-07T03:27:33;3.27;;;3.10;;
703;SDS011;335;48.694;9.120;2023-05-07T03:29:59;4.93;;;4.00;;
703;SDS011;335;48.694;9.120;2023-05-07T03:32:24;3.43;;;3.23;;
703;SDS011;335;48.694;9.120;2023-05-07T03:34:50;3.13;;;2.90;;
703;SDS011;335;48.694;9.120;2023-05-07T03:37:15;2.90;;;2.70;;
703;SDS011;335;48.694;9.120;2023-05-07T03:39:40;3.23;;;3.03;;
703;SDS011;335;48.694;9.120;2023-05-07T03:42:06;3.53;;;3.33;;
703;SDS011;335;48.694;9.120;2023-05-07T03:44:31;3.60;;;3.30;;
703;SDS011;335;48.694;9.120;2023-05-07T03:46:56;2.93;;;2.73;;
703;SDS011;335;48.694;9.120;2023-05-07T03:49:22;3.50;;;3.30;;
703;SDS011;335;48.694;9.120;2023-05-07T03:51:47;3.70;;;3.40;;
703;SDS011;335;48.694;9.120;2023-05-07T03:54:12;4.03;;;3.77;;
703;SDS011;335;48.694;9.120;2023-05-07T03:56:38;3.60;;;3.40;;
703;SDS011;335;48.694;9.120;2023-05-07T03:59:03;2.67;;;2.57;;
703;SDS011;335;48.694;9.120;2023-05-07T04:01:28;4.23;;;3.93;;
703;SDS011;335;48.694;9.120;2023-05-07T04:03:54;3.37;;;3.13;;
703;SDS011;335;48.694;9.120;2023-05-07T04:06:19;3.60;;;3.30;;
703;SDS011;335;48.694;9.120;2023-05-07T04:08:44;3.77;;;3.57;;
703;SDS011;335;48.694;9.120;2023-05-07T04:11:10;3.87;;;3.57;;
703;SDS011;335;48.694;9.120;2023-05-07T04:13:35;3.40;;;3.20;;
703;SDS011;335;48.694;9.120;2023-05-07T04:16:01;3.23;;;3.10;;
703;SDS011;335;48.694;9.120;2023-05-07T04:18:27;3.60;;;3.30;;
703;SDS011;335;48.694;9.120;2023-05-07T04:20:53;3.87;;;2.97;;
703;SDS011;335;48.694;9.120;2023-05-07T04:23:18;4.20;;;2.70;;
703;SDS011;335;48.694;9.120;2023-05-07T04:25:44;3.10;;;2.90;;
703;SDS011;335;48.694;9.120;2023-05-07T04:28:10;3.10;;;2.90;;
703;SDS011;335;48.694;9.120;2023-05-07T04:30:36;3.40;;;3.10;;
703;SDS011;335;48.694;9.120;2023-05-07T04:33:01;4.00;;;3.70;;
703;SDS011;335;48.694;9.120;2023-05-07T04:35:26;3.13;;;2.93;;
703;SDS011;335;48.694;9.120;2023-05-07T04:37:52;4.60;;;3.60;;
703;SDS011;335;48.694;9.120;2023-05-07T04:40:17;4.10;;;3.80;;
703;SDS011;335;48.694;9.120;2023-05-07T04:42:42;3.30;;;3.17;;
703;SDS011;335;48.694;9.120;2023-05-07T04:45:08;3.67;;;3.47;;
703;SDS011;335;48.694;9.120;2023-05-07T04:47:35;2.93;;;2.83;;
703;SDS011;335;48.694;9.120;2023-05-07T04:50:00;3.77;;;3.57;;
703;SDS011;335;48.694;9.120;2023-05-07T04:52:26;3.10;;;3.00;;
703;SDS011;335;48.694;9.120;2023-05-07T04:54:51;3.30;;;3.10;;
703;SDS011;335;48.694;9.120;2023-05-07T04:57:16;3.57;;;3.37;;
703;SDS011;335;48.694;9.120;2023-05-07T04:59:42;3.27;;;3.13;;
703;SDS011;335;48.694;9.120;2023-05-07T05:02:09;3.40;;;3.20;;
703;SDS011;335;48.694;9.120;2023-05-07T05:04:35;4.00;;;3.80;;
703;SDS011;335;48.694;9.120;2023-05-07T05:07:00;4.10;;;3.80;;
703;SDS011;335;48.694;9.120;2023-05-07T05:09:25;4.17;;;3.97;;
703;SDS011;335;48.694;9.120;2023-05-07T05:11:51;4.47;;;4.17;;
703;SDS011;335;48.694;9.120;2023-05-07T05:14:16;4.23;;;3.90;;
703;SDS011;335;48.694;9.120;2023-05-07T05:16:41;4.33;;;3.93;;
703;SDS011;335;48.694;9.120;2023-05-07T05:19:07;4.47;;;4.07;;
703;SDS011;335;48.694;9.120;2023-05-07T05:21:32;3.87;;;3.67;;
703;SDS011;335;48.694;9.120;2023-05-07T05:23:58;4.40;;;4.10;;
703;SDS011;335;48.694;9.120;2023-05-07T05:26:23;4.57;;;4.27;;
703;SDS011;335;48.694;9.120;2023-05-07T05:28:48;5.70;;;4.90;;
703;SDS011;335;48.694;9.120;2023-05-07T05:31:13;5.00;;;4.70;;
703;SDS011;335;48.694;9.120;2023-05-07T05:33:39;4.53;;;4.23;;
703;SDS011;335;48.694;9.120;2023-05-07T05:36:05;4.97;;;4.50;;
703;SDS011;335;48.694;9.120;2023-05-07T05:38:30;4.60;;;4.33;;
703;SDS011;335;48.694;9.120;2023-05-07T05:40:56;4.83;;;4.47;;
703;SDS011;335;48.694;9.120;2023-05-07T05:43:21;4.50;;;4.20;;
703;SDS011;335;48.694;9.120;2023-05-07T05:45:46;4.27;;;4.07;;
703;SDS011;335;48.694;9.120;2023-05-07T05:48:11;4.23;;;3.93;;
703;SDS011;335;48.694;9.120;2023-05-07T05:50:37;4.20;;;3.97;;
703;SDS011;335;48.694;9.120;2023-05-07T05:53:02;3.90;;;3.57;;
703;SDS011;335;48.694;9.120;2023-05-07T05:55:27;3.90;;;3.70;;
703;SDS011;335;48.694;9.120;2023-05-07T05:57:53;4.07;;;3.77;;
703;SDS011;335;48.694;9.120;2023-05-07T06:00:18;3.90;;;3.70;;
703;SDS011;335;48.694;9.120;2023-05-07T06:02:47;3.90;;;3.70;;
703;SDS011;335;48.694;9.120;2023-05-07T06:05:12;4.10;;;3.80;;
703;SDS011;335;48.694;9.120;2023-05-07T06:07:37;4.20;;;4.00;;
703;SDS011;335;48.694;9.120;2023-05-07T06:10:03;3.57;;;3.37;;
703;SDS011;335;48.694;9.120;2023-05-07T06:12:28;3.90;;;3.53;;
703;SDS011;335;48.694;9.120;2023-05-07T06:14:54;4.10;;;3.77;;
703;SDS011;335;48.694;9.120;2023-05-07T06:17:19;3.93;;;3.63;;
703;SDS011;335;48.694;9.120;2023-05-07T06:19:45;4.47;;;4.17;;
703;SDS011;335;48.694;9.120;2023-05-07T06:22:10;3.50;;;3.30;;
703;SDS011;335;48.694;9.120;2023-05-07T06:24:35;3.70;;;3.50;;
703;SDS011;335;48.694;9.120;2023-05-07T06:27:01;3.50;;;3.30;;
703;SDS011;335;48.694;9.120;2023-05-07T06:29:26;3.90;;;3.70;;
703;SDS011;335;48.694;9.120;2023-05-07T06:31:52;3.77;;;3.47;;
703;SDS011;335;48.694;9.120;2023-05-07T06:34:18;3.20;;;3.10;;
703;SDS011;335;48.694;9.120;2023-05-07T06:36:43;3.70;;;3.40;;
703;SDS011;335;48.694;9.120;2023-05-07T06:39:08;3.33;;;3.13;;
703;SDS011;335;48.694;9.120;2023-05-07T06:41:34;3.10;;;3.00;;
703;SDS011;335;48.694;9.120;2023-05-07T06:44:00;3.87;;;3.57;;
703;SDS011;335;48.694;9.120;2023-05-07T06:46:26;4.47;;;4.17;;
703;SDS011;335;48.694;9.120;2023-05-07T06:48:52;3.93;;;3.73;;
703;SDS011;335;48.694;9.120;2023-05-07T06:51:17;3.83;;;3.50;;
703;SDS011;335;48.694;9.120;2023-05-07T06:53:43;3.70;;;3.50;;
703;SDS011;335;48.694;9.120;2023-05-07T06:56:08;3.50;;;3.30;;
703;SDS011;335;48.694;9.120;2023-05-07T06:58:33;3.70;;;3.50;;
703;SDS011;335;48.694;9.120;2023-05-07T07:00:59;2.80;;;2.70;;
703;SDS011;335;48.694;9.120;2023-05-07T07:03:24;4.10;;;3.80;;
703;SDS011;335;48.694;9.120;2023-05-07T07:05:51;3.50;;;3.40;;
703;SDS011;335;48.694;9.120;2023-05-07T07:08:17;3.57;;;3.27;;
703;SDS011;335;48.694;9.120;2023-05-07T07:10:43;3.23;;;3.07;;
703;SDS011;335;48.694;9.120;2023-05-07T07:13:08;3.37;;;3.17;;
703;SDS011;335;48.694;9.120;2023-05-07T07:15:33;3.80;;;3.50;;
703;SDS011;335;48.694;9.120;2023-05-07T07:17:59;3.77;;;3.43;;
703;SDS011;335;48.694;9.120;2023-05-07T07:20:24;3.33;;;3.13;;
703;SDS011;335;48.694;9.120;2023-05-07T07:22:49;3.40;;;3.20;;
703;SDS011;335;48.694;9.120;2023-05-07T07:25:15;5.33;;;3.50;;
703;SDS011;335;48.694;9.120;2023-05-07T07:27:40;3.40;;;3.20;;
703;SDS011;335;48.694;9.120;2023-05-07T07:30:05;2.97;;;2.77;;
703;SDS011;335;48.694;9.120;2023-05-07T07:32:31;3.30;;;3.00;;
703;SDS011;335;48.694;9.120;2023-05-07T07:34:58;3.03;;;2.83;;
703;SDS011;335;48.694;9.120;2023-05-07T07:37:23;3.03;;;2.83;;
703;SDS011;335;48.694;9.120;2023-05-07T07:39:50;2.87;;;2.77;;
703;SDS011;335;48.694;9.120;2023-05-07T07:42:15;2.70;;;2.50;;
703;SDS011;335;48.694;9.120;2023-05-07T07:44:41;2.50;;;2.30;;
703;SDS011;335;48.694;9.120;2023-05-07T07:47:06;2.20;;;2.10;;
703;SDS011;335;48.694;9.120;2023-05-07T07:49:31;2.60;;;2.50;;
703;SDS011;335;48.694;9.120;2023-05-07T07:51:57;2.47;;;2.37;;
703;SDS011;335;48.694;9.120;2023-05-07T07:54:24;2.53;;;2.07;;
703;SDS011;335;48.694;9.120;2023-05-07T07:56:49;2.27;;;2.17;;
703;SDS011;335;48.694;9.120;2023-05-07T07:59:15;2.20;;;2.10;;
703;SDS011;335;48.694;9.120;2023-05-07T08:01:43;2.00;;;1.90;;
703;SDS011;335;48.694;9.120;2023-05-07T08:04:09;2.50;;;2.40;;
703;SDS011;335;48.694;9.120;2023-05-07T08:06:34;2.20;;;2.10;;
703;SDS011;335;48.694;9.120;2023-05-07T08:08:59;1.90;;;1.80;;
703;SDS011;335;48.694;9.120;2023-05-07T08:11:25;2.20;;;2.10;;
703;SDS011;335;48.694;9.120;2023-05-07T08:13:50;2.20;;;2.10;;
703;SDS011;335;48.694;9.120;2023-05-07T08:16:16;2.23;;;2.13;;
703;SDS011;335;48.694;9.120;2023-05-07T08:18:41;2.23;;;2.13;;
703;SDS011;335;48.694;9.120;2023-05-07T08:21:06;2.00;;;1.90;;
703;SDS011;335;48.694;9.120;2023-05-07T08:23:32;2.47;;;2.37;;
703;SDS011;335;48.694;9.120;2023-05-07T08:25:59;2.10;;;2.00;;
703;SDS011;335;48.694;9.120;2023-05-07T08:28:25;1.70;;;1.63;;
703;SDS011;335;48.694;9.120;2023-05-07T08:30:50;2.13;;;1.80;;
703;SDS011;335;48.694;9.120;2023-05-07T08:33:15;1.60;;;1.57;;
703;SDS011;335;48.694;9.120;2023-05-07T08:35:41;1.87;;;1.60;;
703;SDS011;335;48.694;9.120;2023-05-07T08:38:06;1.43;;;1.43;;
703;SDS011;335;48.694;9.120;2023-05-07T08:40:33;2.70;;;1.70;;
703;SDS011;335;48.694;9.120;2023-05-07T08:43:01;2.00;;;1.90;;
703;SDS011;335;48.694;9.120;2023-05-07T08:45:27;2.20;;;1.57;;
703;SDS011;335;48.694;9.120;2023-05-07T08:47:55;1.40;;;1.30;;
703;SDS011;335;48.694;9.120;2023-05-07T08:50:23;1.67;;;1.57;;
703;SDS011;335;48.694;9.120;2023-05-07T08:52:49;1.40;;;1.30;;
703;SDS011;335;48.694;9.120;2023-05-07T08:55:14;3.90;;;2.20;;
703;SDS011;335;48.694;9.120;2023-05-07T08:57:40;3.70;;;1.87;;
703;SDS011;335;48.694;9.120;2023-05-07T09:00:05;1.93;;;1.83;;
703;SDS011;335;48.694;9.120;2023-05-07T09:02:32;2.00;;;1.90;;
703;SDS011;335;48.694;9.120;2023-05-07T09:04:58;1.30;;;1.30;;
703;SDS011;335;48.694;9.120;2023-05-07T09:07:23;1.90;;;1.80;;
703;SDS011;335;48.694;9.120;2023-05-07T09:09:51;1.70;;;1.53;;
703;SDS011;335;48.694;9.120;2023-05-07T09:12:17;1.60;;;1.50;;
703;SDS011;335;48.694;9.120;2023-05-07T09:14:43;1.70;;;1.60;;
703;SDS011;335;48.694;9.120;2023-05-07T09:17:08;1.50;;;1.40;;
703;SDS011;335;48.694;9.120;2023-05-07T09:19:34;1.77;;;1.67;;
703;SDS011;335;48.694;9.120;2023-05-07T09:22:03;1.50;;;1.40;;
703;SDS011;335;48.694;9.120;2023-05-07T09:24:29;1.37;;;1.37;;
703;SDS011;335;48.694;9.120;2023-05-07T09:26:59;2.47;;;1.63;;
703;SDS011;335;48.694;9.120;2023-05-07T09:29:26;1.77;;;1.57;;
703;SDS011;335;48.694;9.120;2023-05-07T09:31:53;1.53;;;1.30;;
703;SDS011;335;48.694;9.120;2023-05-07T09:34:19;1.30;;;1.20;;
703;SDS011;335;48.694;9.120;2023-05-07T09:36:44;1.43;;;1.33;;
703;SDS011;335;48.694;9.120;2023-05-07T09:39:10;1.70;;;1.60;;
703;SDS011;335;48.694;9.120;2023-05-07T09:41:42;1.47;;;1.37;;
703;SDS011;335;48.694;9.120;2023-05-07T09:44:09;1.60;;;1.60;;
703;SDS011;335;48.694;9.120;2023-05-07T09:46:34;1.37;;;1.27;;
703;SDS011;335;48.694;9.120;2023-05-07T09:49:02;1.27;;;1.27;;
703;SDS011;335;48.694;9.120;2023-05-07T09:51:33;1.50;;;1.47;;
703;SDS011;335;48.694;9.120;2023-05-07T09:54:02;1.60;;;1.50;;
703;SDS011;335;48.694;9.120;2023-05-07T09:56:29;1.63;;;1.20;;
703;SDS011;335;48.694;9.120;2023-05-07T09:58:56;1.13;;;1.13;;
703;SDS011;335;48.694;9.120;2023-05-07T10:01:22;1.27;;;1.17;;
703;SDS011;335;48.694;9.120;2023-05-07T10:03:50;1.40;;;1.30;;
703;SDS011;335;48.694;9.120;2023-05-07T10:06:16;1.37;;;1.27;;
703;SDS011;335;48.694;9.120;2023-05-07T10:08:42;2.83;;;1.20;;
703;SDS011;335;48.694;9.120;2023-05-07T10:11:08;1.50;;;1.40;;
703;SDS011;335;48.694;9.120;2023-05-07T10:13:34;1.20;;;1.20;;
703;SDS011;335;48.694;9.120;2023-05-07T10:16:02;1.30;;;1.20;;
703;SDS011;335;48.694;9.120;2023-05-07T10:18:29;1.10;;;1.10;;
703;SDS011;335;48.694;9.120;2023-05-07T10:20:59;1.07;;;1.07;;
703;SDS011;335;48.694;9.120;2023-05-07T10:23:27;1.77;;;1.40;;
703;SDS011;335;48.694;9.120;2023-05-07T10:25:53;1.33;;;1.17;;
703;SDS011;335;48.694;9.120;2023-05-07T10:28:20;1.53;;;1.43;;
703;SDS011;335;48.694;9.120;2023-05-07T10:33:27;1.57;;;1.47;;
703;SDS011;335;48.694;9.120;2023-05-07T10:35:57;2.83;;;1.67;;
703;SDS011;335;48.694;9.120;2023-05-07T10:38:24;1.80;;;1.70;;
703;SDS011;335;48.694;9.120;2023-05-07T10:40:50;1.23;;;1.23;;
703;SDS011;335;48.694;9.120;2023-05-07T10:43:16;1.27;;;1.27;;
703;SDS011;335;48.694;9.120;2023-05-07T10:45:41;1.07;;;1.07;;
703;SDS011;335;48.694;9.120;2023-05-07T10:50:36;1.37;;;1.10;;
703;SDS011;335;48.694;9.120;2023-05-07T10:55:43;1.23;;;1.00;;
703;SDS011;335;48.694;9.120;2023-05-07T11:00:46;2.80;;;1.73;;
703;SDS011;335;48.694;9.120;2023-05-07T11:03:12;1.83;;;1.10;;
703;SDS011;335;48.694;9.120;2023-05-07T11:05:37;1.43;;;1.33;;
703;SDS011;335;48.694;9.120;2023-05-07T11:08:03;1.30;;;1.20;;
703;SDS011;335;48.694;9.120;2023-05-07T11:13:18;1.30;;;1.20;;
703;SDS011;335;48.694;9.120;2023-05-07T11:15:47;1.57;;;1.50;;
703;SDS011;335;48.694;9.120;2023-05-07T11:18:17;1.43;;;1.33;;
703;SDS011;335;48.694;9.120;2023-05-07T11:20:50;2.50;;;1.77;;
703;SDS011;335;48.694;9.120;2023-05-07T11:28:42;2.10;;;2.00;;
703;SDS011;335;48.694;9.120;2023-05-07T11:31:09;1.63;;;1.47;;
703;SDS011;335;48.694;9.120;2023-05-07T11:33:35;1.60;;;1.50;;
703;SDS011;335;48.694;9.120;2023-05-07T11:36:03;1.37;;;1.37;;
703;SDS011;335;48.694;9.120;2023-05-07T11:38:29;1.70;;;1.57;;
703;SDS011;335;48.694;9.120;2023-05-07T11:40:58;1.50;;;1.40;;
703;SDS011;335;48.694;9.120;2023-05-07T11:43:25;2.07;;;1.83;;
703;SDS011;335;48.694;9.120;2023-05-07T11:45:51;2.20;;;2.10;;
703;SDS011;335;48.694;9.120;2023-05-07T11:48:16;2.30;;;2.20;;
703;SDS011;335;48.694;9.120;2023-05-07T11:50:51;2.30;;;2.20;;
703;SDS011;335;48.694;9.120;2023-05-07T11:53:18;2.03;;;1.93;;
703;SDS011;335;48.694;9.120;2023-05-07T11:55:44;1.87;;;1.77;;
703;SDS011;335;48.694;9.120;2023-05-07T11:58:11;1.87;;;1.77;;
703;SDS011;335;48.694;9.120;2023-05-07T12:00:37;2.00;;;1.90;;
703;SDS011;335;48.694;9.120;2023-05-07T12:03:06;2.03;;;1.93;;
703;SDS011;335;48.694;9.120;2023-05-07T12:05:31;2.00;;;1.90;;
703;SDS011;335;48.694;9.120;2023-05-07T12:07:57;1.97;;;1.87;;
703;SDS011;335;48.694;9.120;2023-05-07T12:10:22;3.13;;;2.93;;
703;SDS011;335;48.694;9.120;2023-05-07T12:12:49;4.00;;;2.83;;
703;SDS011;335;48.694;9.120;2023-05-07T12:15:15;3.17;;;1.90;;
703;SDS011;335;48.694;9.120;2023-05-07T12:17:42;2.33;;;1.93;;
703;SDS011;335;48.694;9.120;2023-05-07T12:20:07;1.67;;;1.57;;
703;SDS011;335;48.694;9.120;2023-05-07T12:22:33;1.30;;;1.17;;
703;SDS011;335;48.694;9.120;2023-05-07T12:24:59;1.47;;;1.40;;
703;SDS011;335;48.694;9.120;2023-05-07T12:27:25;1.47;;;1.10;;
703;SDS011;335;48.694;9.120;2023-05-07T12:29:51;0.87;;;0.87;;
703;SDS011;335;48.694;9.120;2023-05-07T12:32:17;1.20;;;1.10;;
703;SDS011;335;48.694;9.120;2023-05-07T12:34:44;1.37;;;1.27;;
703;SDS011;335;48.694;9.120;2023-05-07T12:37:10;1.67;;;1.53;;
703;SDS011;335;48.694;9.120;2023-05-07T12:39:35;1.63;;;1.33;;
703;SDS011;335;48.694;9.120;2023-05-07T12:42:01;1.57;;;0.93;;
703;SDS011;335;48.694;9.120;2023-05-07T12:44:32;1.30;;;1.20;;
703;SDS011;335;48.694;9.120;2023-05-07T12:47:01;1.33;;;1.23;;
703;SDS011;335;48.694;9.120;2023-05-07T12:49:26;1.93;;;1.90;;
703;SDS011;335;48.694;9.120;2023-05-07T12:51:53;2.13;;;2.00;;
703;SDS011;335;48.694;9.120;2023-05-07T12:54:31;4.57;;;2.97;;
703;SDS011;335;48.694;9.120;2023-05-07T12:57:15;5.63;;;2.47;;
703;SDS011;335;48.694;9.120;2023-05-07T12:59:44;3.40;;;2.33;;
703;SDS011;335;48.694;9.120;2023-05-07T13:02:09;4.07;;;2.87;;
703;SDS011;335;48.694;9.120;2023-05-07T13:04:35;4.60;;;2.60;;
703;SDS011;335;48.694;9.120;2023-05-07T13:07:00;3.33;;;2.10;;
703;SDS011;335;48.694;9.120;2023-05-07T13:09:26;2.30;;;2.10;;
703;SDS011;335;48.694;9.120;2023-05-07T13:11:51;3.20;;;2.43;;
703;SDS011;335;48.694;9.120;2023-05-07T13:14:16;2.20;;;1.93;;
703;SDS011;335;48.694;9.120;2023-05-07T13:16:42;2.07;;;1.90;;
703;SDS011;335;48.694;9.120;2023-05-07T13:19:07;3.83;;;2.40;;
703;SDS011;335;48.694;9.120;2023-05-07T13:21:33;3.30;;;2.60;;
703;SDS011;335;48.694;9.120;2023-05-07T13:23:58;3.63;;;3.33;;
703;SDS011;335;48.694;9.120;2023-05-07T13:26:24;5.17;;;4.73;;
703;SDS011;335;48.694;9.120;2023-05-07T13:28:49;3.87;;;2.00;;
703;SDS011;335;48.694;9.120;2023-05-07T13:31:15;2.00;;;1.80;;
703;SDS011;335;48.694;9.120;2023-05-07T13:33:41;3.20;;;2.07;;
703;SDS011;335;48.694;9.120;2023-05-07T13:36:07;3.13;;;2.03;;
703;SDS011;335;48.694;9.120;2023-05-07T13:38:32;9.03;;;5.47;;
703;SDS011;335;48.694;9.120;2023-05-07T13:40:57;7.47;;;4.90;;
703;SDS011;335;48.694;9.120;2023-05-07T13:43:24;3.97;;;3.47;;
703;SDS011;335;48.694;9.120;2023-05-07T13:45:49;3.07;;;2.80;;
703;SDS011;335;48.694;9.120;2023-05-07T13:48:15;5.70;;;3.30;;
703;SDS011;335;48.694;9.120;2023-05-07T13:50:40;4.60;;;2.93;;
703;SDS011;335;48.694;9.120;2023-05-07T13:53:07;12.50;;;3.33;;
703;SDS011;335;48.694;9.120;2023-05-07T13:55:32;4.77;;;3.63;;
703;SDS011;335;48.694;9.120;2023-05-07T13:57:59;5.73;;;4.07;;
703;SDS011;335;48.694;9.120;2023-05-07T14:00:25;3.30;;;3.10;;
703;SDS011;335;48.694;9.120;2023-05-07T14:02:52;3.47;;;3.20;;
703;SDS011;335;48.694;9.120;2023-05-07T14:05:17;3.77;;;3.37;;
703;SDS011;335;48.694;9.120;2023-05-07T14:07:43;6.17;;;4.27;;
703;SDS011;335;48.694;9.120;2023-05-07T14:10:08;4.97;;;4.57;;
703;SDS011;335;48.694;9.120;2023-05-07T14:12:34;3.83;;;3.53;;
703;SDS011;335;48.694;9.120;2023-05-07T14:15:00;5.17;;;3.97;;
703;SDS011;335;48.694;9.120;2023-05-07T14:17:25;4.40;;;3.77;;
703;SDS011;335;48.694;9.120;2023-05-07T14:19:52;7.17;;;4.40;;
703;SDS011;335;48.694;9.120;2023-05-07T14:22:19;3.43;;;3.20;;
703;SDS011;335;48.694;9.120;2023-05-07T14:24:45;3.73;;;3.30;;
703;SDS011;335;48.694;9.120;2023-05-07T14:27:11;4.33;;;3.93;;
703;SDS011;335;48.694;9.120;2023-05-07T14:29:36;3.60;;;3.30;;
703;SDS011;335;48.694;9.120;2023-05-07T14:32:02;4.23;;;3.93;;
703;SDS011;335;48.694;9.120;2023-05-07T14:34:28;6.00;;;5.13;;
703;SDS011;335;48.694;9.120;2023-05-07T14:36:53;4.70;;;4.23;;
703;SDS011;335;48.694;9.120;2023-05-07T14:39:19;5.73;;;5.10;;
703;SDS011;335;48.694;9.120;2023-05-07T14:41:44;3.90;;;3.60;;
703;SDS011;335;48.694;9.120;2023-05-07T14:44:09;3.90;;;3.63;;
703;SDS011;335;48.694;9.120;2023-05-07T14:46:35;4.70;;;4.37;;
703;SDS011;335;48.694;9.120;2023-05-07T14:49:01;3.90;;;3.50;;
703;SDS011;335;48.694;9.120;2023-05-07T14:51:27;4.20;;;3.90;;
703;SDS011;335;48.694;9.120;2023-05-07T14:53:53;4.20;;;3.90;;
703;SDS011;335;48.694;9.120;2023-05-07T14:56:18;4.43;;;4.13;;
703;SDS011;335;48.694;9.120;2023-05-07T14:58:43;3.80;;;3.53;;
703;SDS011;335;48.694;9.120;2023-05-07T15:01:10;3.87;;;3.67;;
703;SDS011;335;48.694;9.120;2023-05-07T15:03:36;4.10;;;3.80;;
703;SDS011;335;48.694;9.120;2023-05-07T15:06:01;4.53;;;4.20;;
703;SDS011;335;48.694;9.120;2023-05-07T15:08:27;4.67;;;4.27;;
703;SDS011;335;48.694;9.120;2023-05-07T15:10:52;5.13;;;4.17;;
703;SDS011;335;48.694;9.120;2023-05-07T15:13:18;4.20;;;3.90;;
703;SDS011;335;48.694;9.120;2023-05-07T15:15:43;4.03;;;3.70;;
703;SDS011;335;48.694;9.120;2023-05-07T15:18:09;3.43;;;3.23;;
703;SDS011;335;48.694;9.120;2023-05-07T15:20:36;2.90;;;2.70;;
703;SDS011;335;48.694;9.120;2023-05-07T15:23:01;3.27;;;3.00;;
703;SDS011;335;48.694;9.120;2023-05-07T15:25:27;2.97;;;2.87;;
703;SDS011;335;48.694;9.120;2023-05-07T15:27:53;3.67;;;3.40;;
703;SDS011;335;48.694;9.120;2023-05-07T15:30:18;3.63;;;3.33;;
703;SDS011;335;48.694;9.120;2023-05-07T15:32:44;5.17;;;4.20;;
703;SDS011;335;48.694;9.120;2023-05-07T15:35:10;5.50;;;5.10;;
703;SDS011;335;48.694;9.120;2023-05-07T15:37:35;4.87;;;4.53;;
703;SDS011;335;48.694;9.120;2023-05-07T15:40:01;5.90;;;5.40;;
703;SDS011;335;48.694;9.120;2023-05-07T15:42:31;4.40;;;4.17;;
703;SDS011;335;48.694;9.120;2023-05-07T15:44:56;5.10;;;4.80;;
703;SDS011;335;48.694;9.120;2023-05-07T15:47:22;5.93;;;4.17;;
703;SDS011;335;48.694;9.120;2023-05-07T15:49:47;3.00;;;2.80;;
703;SDS011;335;48.694;9.120;2023-05-07T15:52:12;3.60;;;3.40;;
703;SDS011;335;48.694;9.120;2023-05-07T15:54:41;2.53;;;2.43;;